Stites, Illinois
Current Conditions -  °F | °C
As of 7:53 AM on Friday 24 Oct 2014 (Local Time) from KCPS Reporting Station
Overcast Overcast  
Wind Chill: 53°   Ceiling: 1000
Heat Index: 53°   Visibility: 10mi
Dew Point: 50°   Wind: 6mph
Humidity: 89%   Direction: 240°WSW
Pressure: 30.12"   Gusts: NA
Location:  38.6276°N, 90.1494°W
Report Text: KCPS 241253Z 24005KT 10SM OVC010 12/10 A3012 RMK AO2 CIG 007V011 SLP197 T01170100
Loading
Personal Weather Stations






























Interactive Weather Map
Tropical Storm Tracking
New forecast layout! Learn more

10-Day Weather Forecast

Advertisements
Track Severe Weather on mobile